Portada
METAR-TAF:

METAR-TAF

Aeroports :

Futuna, França

latitud: 14-19S, longitud: 178-07W, altitud: 6 m

METAR: manca

Hora: 19:58 (07:58 UTC)

Pronòstic

L'informe es va fer fa 2 hores i 58 minuts, a les 05:00 UTC
Pronòstic vàlid del 19 a les 06 UTC al 20 a les 06 UTC
Vent 8 kt del Est
Visibilitat 10 km o més
Escasses núvols a una alçada de 2000 ft

TAF: NLWF 190500Z 1906/2006 09008KT 9999 FEW020

Observacions i pronòstics meteorològics de més de 4000 aeroports (METAR i TAF).

Les estacions disponibles són els punts grocs i vermells al mapa.

Posi el ratolí al punt desitjat per veure el nom de l'estació.

Feu clic per veure les observacions i els pronòstics meteorològics.

Per canviar el mapa: feu clic els botons verds amb una creu de color negre per apropar; al botó verd amb un guió per allunyar la imatge; o en les fletxes verdes per a mapes adjacents.


METAR-TAF: